Time;durP1;ratioP1;P1;durP2;ratioP2;P2;SDS_P1;SDS_P2;PMS_P1;PMS_P2;Temp;Humidity;BMP_temperature;BMP_pressure;BME280_temperature;BME280_humidity;BME280_pressure;Samples;Min_cycle;Max_cycle;Signal;HPM_P1;HPM_P2
2022/06/29 00:02:22;;;;;;;3.22;1.90;;;;;;;19.08;66.77;101728.09;4968601;28;20057;-67
2022/06/29 00:04:48;;;;;;;3.13;1.52;;;;;;;19.01;66.78;101727.56;4967720;28;20105;-68
2022/06/29 00:07:13;;;;;;;4.45;1.80;;;;;;;18.97;67.22;101725.13;4968535;28;20023;-68
2022/06/29 00:09:38;;;;;;;4.53;1.92;;;;;;;18.94;67.47;101715.50;4967279;28;20019;-68
2022/06/29 00:12:04;;;;;;;4.78;1.70;;;;;;;18.88;67.97;101719.38;4967657;28;20038;-67
2022/06/29 00:14:29;;;;;;;5.03;1.80;;;;;;;18.87;67.72;101706.09;4967728;28;20027;-67
2022/06/29 00:16:54;;;;;;;10.68;2.10;;;;;;;18.81;68.15;101707.28;4967650;28;20041;-67
2022/06/29 00:19:20;;;;;;;2.85;1.65;;;;;;;18.82;67.50;101704.53;4966677;28;20075;-68
2022/06/29 00:21:45;;;;;;;2.97;1.63;;;;;;;18.74;67.69;101708.56;4968141;28;20038;-69
2022/06/29 00:24:11;;;;;;;7.78;1.90;;;;;;;18.71;68.11;101700.72;4966977;28;20090;-68
2022/06/29 00:26:36;;;;;;;2.58;1.65;;;;;;;18.74;68.15;101705.91;4968284;28;20117;-68
2022/06/29 00:29:02;;;;;;;2.60;1.60;;;;;;;18.72;67.58;101697.97;4968424;28;20026;-68
2022/06/29 00:31:27;;;;;;;3.25;1.55;;;;;;;18.75;67.48;101707.66;4967137;28;20078;-67
2022/06/29 00:33:52;;;;;;;5.20;2.22;;;;;;;18.73;67.71;101694.38;4967772;28;20037;-68
2022/06/29 00:36:18;;;;;;;2.70;1.70;;;;;;;18.75;67.49;101707.66;4966870;28;20115;-68
2022/06/29 00:38:43;;;;;;;4.63;2.00;;;;;;;18.66;67.63;101696.50;4966047;28;20110;-67
2022/06/29 00:41:08;;;;;;;3.15;1.65;;;;;;;18.69;67.92;101693.66;4967261;28;20478;-67
2022/06/29 00:43:41;;;;;;;4.07;1.92;;;;;;;18.79;67.76;101695.84;4968349;28;20049;-67
2022/06/29 00:46:07;;;;;;;5.93;1.80;;;;;;;18.76;67.52;101696.00;4980313;28;20042;-67
2022/06/29 00:48:32;;;;;;;3.78;1.80;;;;;;;18.73;67.70;101689.03;4987593;28;20081;-67
2022/06/29 00:51:01;;;;;;;5.57;2.13;;;;;;;18.64;67.78;101685.06;4986301;28;20191;-68
2022/06/29 00:53:26;;;;;;;;;;;;;;;18.72;67.56;101683.78;4986662;28;20485;-68
2022/06/29 00:55:53;;;;;;;3.47;2.00;;;;;;;18.72;67.63;101686.47;4983692;28;19920;-68
2022/06/29 00:58:20;;;;;;;4.25;1.63;;;;;;;18.66;67.91;101676.97;4986947;28;20030;-68
2022/06/29 01:00:45;;;;;;;6.00;2.03;;;;;;;18.63;67.62;101672.66;4985056;28;20023;-67
2022/06/29 01:03:11;;;;;;;3.83;1.75;;;;;;;18.71;67.33;101674.03;4986885;28;20030;-67
2022/06/29 01:05:36;;;;;;;4.75;2.05;;;;;;;18.66;67.60;101674.31;4996611;22;20006;-68
2022/06/29 01:08:01;;;;;;;3.22;1.80;;;;;;;18.64;67.72;101668.19;4989293;28;20040;-67
2022/06/29 01:10:27;;;;;;;9.75;2.30;;;;;;;18.65;67.14;101670.78;5021895;28;20030;-67
2022/06/29 01:12:53;;;;;;;3.17;1.70;;;;;;;18.64;66.81;101661.06;5026015;28;20116;-69
2022/06/29 01:15:19;;;;;;;7.38;2.17;;;;;;;18.61;66.93;101669.22;5025541;28;20033;-67
2022/06/29 01:17:45;;;;;;;5.50;1.80;;;;;;;18.62;66.63;101668.28;5026608;28;20055;-68
2022/06/29 01:20:11;;;;;;;3.60;1.67;;;;;;;18.58;66.99;101658.72;5010859;28;20057;-68
2022/06/29 01:22:37;;;;;;;3.33;1.77;;;;;;;18.60;66.71;101664.81;5005878;28;20033;-67
2022/06/29 01:25:03;;;;;;;5.07;2.00;;;;;;;18.55;67.37;101659.72;5005268;28;20026;-67
2022/06/29 01:27:29;;;;;;;2.97;1.88;;;;;;;18.64;66.68;101665.50;5006506;28;20026;-68
2022/06/29 01:29:55;;;;;;;4.85;2.00;;;;;;;18.62;67.27;101662.06;5006056;28;20168;-68
2022/06/29 01:32:21;;;;;;;5.90;1.88;;;;;;;18.62;66.71;101664.72;5006739;28;20032;-68
2022/06/29 01:34:46;;;;;;;2.33;1.60;;;;;;;18.62;66.63;101667.41;5005956;28;20110;-67
2022/06/29 01:37:12;;;;;;;5.53;2.22;;;;;;;18.62;66.30;101670.94;5006374;28;20021;-68
2022/06/29 01:39:38;;;;;;;3.65;1.92;;;;;;;18.65;66.51;101665.44;5005083;28;20036;-67
2022/06/29 01:42:04;;;;;;;5.50;2.03;;;;;;;18.68;66.01;101664.41;5007572;28;20427;-68
2022/06/29 01:44:29;;;;;;;5.88;2.28;;;;;;;18.66;66.40;101668.97;5009702;28;20163;-67
2022/06/29 01:46:54;;;;;;;2.95;1.80;;;;;;;18.62;66.71;101672.72;5009331;28;20065;-69
2022/06/29 01:49:20;;;;;;;3.45;1.52;;;;;;;18.61;66.79;101669.22;5017391;28;20091;-69
2022/06/29 01:51:45;;;;;;;5.80;1.90;;;;;;;18.55;66.63;101670.41;5029969;28;20064;-69
2022/06/29 01:54:12;;;;;;;4.10;1.70;;;;;;;18.55;66.57;101670.41;5028272;28;20383;-69
2022/06/29 01:56:37;;;;;;;2.83;2.15;;;;;;;18.53;66.72;101668.75;5030070;28;20030;-68
2022/06/29 01:59:03;;;;;;;6.60;1.70;;;;;;;18.49;66.87;101668.09;5017333;28;20031;-68
2022/06/29 02:01:28;;;;;;;3.40;1.85;;;;;;;18.49;66.45;101661.88;4990475;28;20023;-68
2022/06/29 02:03:54;;;;;;;13.18;2.10;;;;;;;18.46;66.92;101659.38;4989418;28;20018;-68
2022/06/29 02:06:20;;;;;;;4.40;2.22;;;;;;;18.50;66.84;101655.59;4990356;28;20065;-69
2022/06/29 02:08:46;;;;;;;2.13;1.90;;;;;;;18.43;66.94;101655.91;4992798;28;20408;-70
2022/06/29 02:11:11;;;;;;;3.55;2.25;;;;;;;18.39;66.87;101653.53;5009657;28;20033;-67
2022/06/29 02:13:37;;;;;;;6.03;2.40;;;;;;;18.39;67.23;101656.19;5009365;28;20062;-68
2022/06/29 02:16:02;;;;;;;2.58;2.03;;;;;;;18.36;67.29;101649.19;5009999;28;20060;-68
2022/06/29 02:18:27;;;;;;;3.40;2.25;;;;;;;18.30;67.27;101647.72;5011620;28;20717;-69
2022/06/29 02:20:53;;;;;;;3.67;2.13;;;;;;;18.25;67.49;101647.13;5011702;28;20033;-68
2022/06/29 02:23:20;;;;;;;4.40;2.00;;;;;;;18.27;67.80;101641.72;5008615;28;20457;-68
2022/06/29 02:25:46;;;;;;;4.40;1.90;;;;;;;18.22;67.77;101639.28;5008419;28;20030;-68
2022/06/29 02:28:11;;;;;;;4.82;2.33;;;;;;;18.14;68.04;101642.38;5008710;28;20024;-68
2022/06/29 02:36:04;;;;;;;6.05;2.15;;;;;;;18.05;68.58;101627.69;5007805;28;20041;-67
2022/06/29 02:38:30;;;;;;;7.88;2.40;;;;;;;18.00;68.64;101628.88;5008025;28;20030;-68
2022/06/29 02:40:55;;;;;;;4.93;2.20;;;;;;;17.94;68.57;101635.38;5008066;28;20113;-68
2022/06/29 02:43:20;;;;;;;4.53;2.50;;;;;;;17.86;69.47;101630.47;5009222;28;20034;-69
2022/06/29 02:45:46;;;;;;;2.63;2.40;;;;;;;17.82;69.63;101626.22;5008549;28;20030;-67
2022/06/29 02:48:11;;;;;;;5.10;2.45;;;;;;;17.77;69.86;101622.94;5009040;28;20053;-69
2022/06/29 02:50:37;;;;;;;3.78;2.28;;;;;;;17.77;69.59;101621.16;5008983;28;20026;-69
2022/06/29 02:53:02;;;;;;;6.00;2.50;;;;;;;17.72;69.54;101614.31;5008212;28;20033;-69
2022/06/29 02:55:27;;;;;;;2.83;2.50;;;;;;;17.72;69.97;101616.97;5007508;28;20022;-69
2022/06/29 02:57:53;;;;;;;4.70;2.40;;;;;;;17.69;69.75;101612.66;5009663;28;20053;-69
2022/06/29 03:00:18;;;;;;;4.72;2.30;;;;;;;17.68;69.92;101611.84;5011003;28;20057;-68
2022/06/29 03:02:44;;;;;;;2.13;1.90;;;;;;;17.67;69.81;101602.09;5027043;28;20033;-68
2022/06/29 03:05:09;;;;;;;3.65;2.40;;;;;;;17.63;70.45;101611.19;5026990;28;20025;-69
2022/06/29 03:07:35;;;;;;;3.85;2.30;;;;;;;17.60;70.33;101614.00;5027538;28;20519;-70
2022/06/29 03:10:00;;;;;;;2.92;2.33;;;;;;;17.57;70.71;101608.84;5027901;28;20030;-69
2022/06/29 03:12:25;;;;;;;5.15;2.47;;;;;;;17.55;70.43;101605.41;5017273;28;20415;-69
2022/06/29 03:14:51;;;;;;;4.22;2.40;;;;;;;17.52;70.73;101602.91;5007710;28;20108;-69
2022/06/29 03:17:16;;;;;;;4.60;2.63;;;;;;;17.48;70.83;101595.97;5007217;28;20018;-69
2022/06/29 03:19:42;;;;;;;3.85;2.40;;;;;;;17.52;70.87;101600.25;5003691;28;20057;-68
2022/06/29 03:22:07;;;;;;;4.45;2.60;;;;;;;17.51;71.23;101598.50;4988699;28;20468;-66
2022/06/29 03:24:33;;;;;;;3.58;2.47;;;;;;;17.43;71.14;101591.75;4987747;28;20080;-68
2022/06/29 03:26:58;;;;;;;7.22;2.70;;;;;;;17.43;71.18;101594.41;4988683;28;20034;-69
2022/06/29 03:29:23;;;;;;;5.53;3.22;;;;;;;17.40;71.50;101597.25;4992297;28;20025;-68
2022/06/29 03:31:49;;;;;;;6.97;2.75;;;;;;;17.42;71.35;101590.03;5028026;28;20033;-68
2022/06/29 03:34:14;;;;;;;4.15;2.97;;;;;;;17.43;71.67;101590.91;5027242;28;20091;-69
2022/06/29 03:36:40;;;;;;;4.03;2.50;;;;;;;17.41;71.89;101593.66;5027824;28;20021;-69
2022/06/29 03:39:05;;;;;;;6.60;2.90;;;;;;;17.46;71.54;101587.22;5027060;28;20021;-66
2022/06/29 03:41:30;;;;;;;5.30;2.90;;;;;;;17.49;71.61;101585.25;5027278;28;20480;-68
2022/06/29 03:43:56;;;;;;;3.42;3.00;;;;;;;17.52;71.42;101592.25;5027011;28;20017;-68
2022/06/29 03:46:21;;;;;;;6.03;2.72;;;;;;;17.48;71.39;101585.31;5027470;28;20052;-68
2022/06/29 03:48:46;;;;;;;4.25;3.10;;;;;;;17.52;71.38;101581.59;5027641;28;20464;-68
2022/06/29 03:51:12;;;;;;;4.80;2.85;;;;;;;17.50;71.36;101587.00;5014265;28;20021;-68
2022/06/29 03:53:37;;;;;;;4.90;2.80;;;;;;;17.49;71.24;101589.72;5035003;28;20076;-67
2022/06/29 03:56:03;;;;;;;4.22;2.50;;;;;;;17.48;71.37;101582.66;5006736;28;20075;-68
2022/06/29 03:58:28;;;;;;;4.72;2.60;;;;;;;17.51;71.52;101583.38;5006586;28;20068;-67
2022/06/29 04:00:54;;;;;;;6.30;3.15;;;;;;;17.55;71.22;101579.59;5009360;28;20030;-67
2022/06/29 04:03:19;;;;;;;6.40;3.22;;;;;;;17.59;71.11;101580.31;5006500;28;20029;-69
2022/06/29 04:05:44;;;;;;;5.05;3.20;;;;;;;17.61;71.18;101590.91;5005341;28;20037;-69
2022/06/29 04:08:10;;;;;;;7.53;3.28;;;;;;;17.57;71.01;101584.84;4999086;28;20034;-68
2022/06/29 04:10:36;;;;;;;5.72;3.33;;;;;;;17.63;71.16;101581.00;5019332;28;20025;-67
2022/06/29 04:13:01;;;;;;;7.78;3.17;;;;;;;17.65;71.25;101582.66;5012672;28;20064;-70
2022/06/29 04:15:26;;;;;;;4.28;2.90;;;;;;;17.63;70.90;101584.53;5012681;28;20607;-68
2022/06/29 04:17:52;;;;;;;3.58;3.22;;;;;;;17.72;71.13;101590.31;5017314;28;20689;-67
2022/06/29 04:23:02;;;;;;;4.40;3.10;;;;;;;17.71;71.16;101588.59;5021762;28;20248;-67
2022/06/29 04:25:27;;;;;;;5.32;3.50;;;;;;;17.78;70.96;101582.88;5025117;28;20539;-68
2022/06/29 04:27:53;;;;;;;5.70;3.30;;;;;;;17.78;70.52;101571.34;5026001;28;20025;-68
2022/06/29 04:30:18;;;;;;;5.65;3.05;;;;;;;17.84;70.64;101573.69;5014040;28;20168;-69
2022/06/29 04:32:44;;;;;;;8.75;3.22;;;;;;;17.85;70.67;101574.56;5019916;28;20030;-68
2022/06/29 04:35:09;;;;;;;5.22;3.20;;;;;;;17.92;70.21;101573.28;5017763;28;20022;-68
2022/06/29 04:37:34;;;;;;;6.15;3.70;;;;;;;17.98;70.55;101574.75;5020245;28;20128;-68
2022/06/29 04:40:03;;;;;;;7.22;3.45;;;;;;;18.01;70.46;101569.25;5021118;28;20057;-68
2022/06/29 04:42:28;;;;;;;5.15;3.13;;;;;;;18.06;69.69;101568.06;5006952;28;20033;-68
2022/06/29 04:44:54;;;;;;;5.53;3.30;;;;;;;18.21;69.37;101564.69;5012121;28;20057;-68
2022/06/29 04:47:19;;;;;;;5.20;3.35;;;;;;;18.29;68.62;101557.13;5010310;28;20109;-69
2022/06/29 04:49:44;;;;;;;4.03;3.15;;;;;;;18.40;68.96;101554.72;5025148;28;20411;-69
2022/06/29 04:52:10;;;;;;;5.82;2.92;;;;;;;18.51;68.62;101555.94;5025247;28;20475;-68
2022/06/29 04:54:35;;;;;;;5.13;3.00;;;;;;;18.61;68.17;101557.13;5026641;28;20577;-70
2022/06/29 04:57:00;;;;;;;4.88;3.70;;;;;;;18.73;67.82;101549.34;5013806;28;20165;-69
2022/06/29 04:59:26;;;;;;;6.13;3.20;;;;;;;18.79;67.39;101557.03;5005392;28;20109;-70
2022/06/29 05:01:51;;;;;;;4.18;2.70;;;;;;;18.86;67.29;101545.03;5017831;28;20064;-69
2022/06/29 05:04:16;;;;;;;3.28;2.80;;;;;;;18.99;67.14;101539.00;5025055;28;20120;-68
2022/06/29 05:06:42;;;;;;;6.70;3.20;;;;;;;19.13;66.51;101546.19;5025058;28;20046;-70
2022/06/29 05:09:07;;;;;;;5.50;3.05;;;;;;;19.20;66.28;101542.22;5024433;28;20060;-69
2022/06/29 05:11:32;;;;;;;7.15;3.85;;;;;;;19.27;66.16;101534.72;5026306;28;20017;-70
2022/06/29 05:13:58;;;;;;;3.60;3.30;;;;;;;19.19;66.48;101533.34;5025603;28;20037;-70
2022/06/29 05:16:23;;;;;;;3.70;3.20;;;;;;;19.23;66.66;101533.19;5025276;28;20436;-69
2022/06/29 05:18:49;;;;;;;5.53;3.63;;;;;;;19.32;65.85;101525.47;5013582;28;20045;-70
2022/06/29 05:21:15;;;;;;;5.88;3.50;;;;;;;19.34;65.93;101517.34;5006409;28;20392;-69
2022/06/29 05:23:41;;;;;;;6.88;4.03;;;;;;;19.36;65.97;101515.47;5004709;28;20113;-69
2022/06/29 05:26:06;;;;;;;7.13;3.55;;;;;;;19.47;65.93;101521.97;5006895;28;20177;-69
2022/06/29 05:28:33;;;;;;;6.72;3.35;;;;;;;19.52;65.56;101519.84;5023663;28;20029;-70
2022/06/29 05:30:58;;;;;;;6.18;3.17;;;;;;;19.67;65.26;101518.91;5040661;28;20025;-69
2022/06/29 05:33:24;;;;;;;6.60;3.67;;;;;;;19.72;64.88;101515.09;5024785;28;20511;-69
2022/06/29 05:35:49;;;;;;;5.22;3.65;;;;;;;19.82;64.83;101524.25;5026100;28;20029;-68
2022/06/29 05:38:14;;;;;;;7.38;3.53;;;;;;;19.87;64.59;101516.78;5025137;28;20029;-69
2022/06/29 05:40:42;;;;;;;6.35;4.43;;;;;;;19.83;64.31;101510.78;5023296;28;20025;-69
2022/06/29 05:43:07;;;;;;;4.68;3.80;;;;;;;19.87;64.45;101506.09;5008559;28;20072;-68
2022/06/29 05:45:33;;;;;;;8.50;4.55;;;;;;;19.92;63.88;101511.16;5003851;28;20464;-69
2022/06/29 05:47:58;;;;;;;5.60;3.95;;;;;;;19.94;64.39;101515.47;5004993;28;20065;-68
2022/06/29 05:50:24;;;;;;;5.90;3.55;;;;;;;20.09;63.99;101515.47;5005762;28;20129;-69
2022/06/29 05:52:50;;;;;;;5.15;3.38;;;;;;;20.22;63.46;101509.34;5023893;28;20120;-68
2022/06/29 05:55:16;;;;;;;6.47;3.53;;;;;;;20.35;63.20;101502.25;5012281;28;20025;-69
2022/06/29 05:57:41;;;;;;;6.80;3.60;;;;;;;20.48;63.04;101501.41;5007181;28;20026;-70
2022/06/29 06:00:07;;;;;;;16.48;7.47;;;;;;;20.49;62.67;101504.00;5004905;28;20564;-70
2022/06/29 06:02:33;;;;;;;28.90;10.45;;;;;;;20.51;63.38;101495.88;5005023;28;20026;-69
2022/06/29 06:04:58;;;;;;;21.80;6.57;;;;;;;20.60;63.20;101497.94;5003413;28;20025;-67
2022/06/29 06:07:23;;;;;;;8.65;4.30;;;;;;;20.70;62.57;101507.06;5003524;28;20429;-76
2022/06/29 06:09:49;;;;;;;7.15;3.70;;;;;;;20.84;62.24;101507.97;5003653;28;20369;-75
2022/06/29 06:12:14;;;;;;;10.25;3.85;;;;;;;20.95;61.85;101499.25;5004128;28;20029;-74
2022/06/29 06:14:39;;;;;;;8.57;4.03;;;;;;;21.05;62.05;101502.16;5004812;28;20018;-75
2022/06/29 06:17:05;;;;;;;7.13;3.05;;;;;;;21.20;61.82;101501.09;5004913;28;20125;-73
2022/06/29 06:19:30;;;;;;;5.95;3.17;;;;;;;21.24;61.97;101501.75;5003181;28;20495;-74
2022/06/29 06:21:55;;;;;;;5.47;3.75;;;;;;;21.35;61.49;101495.66;5005317;28;20029;-75
2022/06/29 06:24:21;;;;;;;5.85;3.75;;;;;;;21.43;61.46;101504.00;5017509;28;20753;-78
2022/06/29 06:26:46;;;;;;;5.88;3.13;;;;;;;21.65;60.46;101505.19;5005321;28;20292;-77
2022/06/29 06:29:12;;;;;;;8.70;3.75;;;;;;;21.67;60.77;101505.91;5006660;28;20053;-76
2022/06/29 06:31:37;;;;;;;8.70;4.65;;;;;;;21.71;60.97;101515.44;5007387;28;20449;-75
2022/06/29 06:34:03;;;;;;;7.88;4.47;;;;;;;21.64;61.99;101521.38;5009400;28;20060;-75
2022/06/29 06:36:28;;;;;;;11.30;3.97;;;;;;;21.69;61.81;101513.84;5008620;28;20049;-76
2022/06/29 06:38:54;;;;;;;5.75;3.38;;;;;;;21.85;61.22;101510.97;5008513;28;20057;-75
2022/06/29 06:41:22;;;;;;;7.75;3.90;;;;;;;21.90;60.57;101511.50;5008555;28;20029;-71
2022/06/29 06:43:50;;;;;;;9.18;3.40;;;;;;;22.06;60.22;101510.38;5008981;28;20061;-75
2022/06/29 06:46:15;;;;;;;7.82;3.20;;;;;;;22.21;59.40;101514.63;5008926;28;20041;-75
2022/06/29 06:48:42;;;;;;;7.97;4.25;;;;;;;22.35;58.62;101512.78;5008896;28;20022;-78
2022/06/29 06:51:08;;;;;;;12.05;4.40;;;;;;;22.36;58.05;101511.78;5006912;28;20365;-75
2022/06/29 06:53:33;;;;;;;5.80;3.53;;;;;;;22.41;58.03;101509.63;5008624;28;20040;-77
2022/06/29 06:55:58;;;;;;;8.88;2.97;;;;;;;22.49;57.72;101502.84;5007882;28;20116;-77
2022/06/29 06:58:24;;;;;;;34.63;5.70;;;;;;;22.63;57.89;101504.53;5007666;28;20447;-64
2022/06/29 07:00:49;;;;;;;6.65;3.45;;;;;;;22.54;58.02;101500.66;5008778;28;20112;-72
2022/06/29 07:03:15;;;;;;;6.32;3.30;;;;;;;22.55;58.68;101515.81;5006488;28;20105;-71
2022/06/29 07:05:40;;;;;;;7.75;3.50;;;;;;;22.63;58.24;101505.38;5008311;28;20125;-72
2022/06/29 07:08:06;;;;;;;5.95;3.60;;;;;;;22.83;57.62;101503.88;5007618;28;20022;-72
2022/06/29 07:10:31;;;;;;;5.70;3.80;;;;;;;22.89;58.24;101502.56;5008227;28;20030;-71
2022/06/29 07:12:56;;;;;;;8.45;4.47;;;;;;;22.99;57.78;101499.16;5007946;28;20534;-73
2022/06/29 07:15:22;;;;;;;4.88;3.78;;;;;;;23.04;58.30;101502.34;5007860;28;20058;-71
2022/06/29 07:17:47;;;;;;;8.52;3.22;;;;;;;23.08;58.31;101501.13;5008203;28;20026;-70
2022/06/29 07:20:12;;;;;;;7.32;4.65;;;;;;;23.13;58.15;101493.56;5006637;28;20026;-70
2022/06/29 07:22:38;;;;;;;7.32;4.25;;;;;;;23.13;58.09;101498.94;5006562;28;20100;-70
2022/06/29 07:25:03;;;;;;;11.43;4.00;;;;;;;23.19;57.80;101500.31;5006741;28;20511;-70
2022/06/29 07:27:29;;;;;;;10.13;4.15;;;;;;;23.22;58.16;101508.13;5006486;28;20080;-71
2022/06/29 07:29:54;;;;;;;7.72;4.13;;;;;;;23.18;57.31;101496.75;5008655;28;20037;-71
2022/06/29 07:32:20;;;;;;;5.00;4.10;;;;;;;23.23;57.22;101496.41;5007552;28;20026;-69
2022/06/29 07:34:45;;;;;;;7.13;3.65;;;;;;;23.41;56.80;101496.81;5005303;28;20026;-71
2022/06/29 07:37:11;;;;;;;10.35;3.78;;;;;;;23.44;56.43;101501.97;5007322;28;20542;-67
2022/06/29 07:39:36;;;;;;;10.32;4.25;;;;;;;23.38;57.13;101497.06;5008042;28;20564;-68
2022/06/29 07:42:02;;;;;;;9.15;4.78;;;;;;;23.39;57.68;101496.06;5008153;28;20057;-69
2022/06/29 07:44:28;;;;;;;6.93;4.65;;;;;;;23.33;57.94;101497.38;5007658;28;20512;-68
2022/06/29 07:46:54;;;;;;;10.52;4.28;;;;;;;23.34;57.79;101487.50;5006355;28;20473;-70
2022/06/29 07:49:20;;;;;;;7.35;4.60;;;;;;;23.42;57.37;101490.47;5007556;28;20026;-67
2022/06/29 07:51:45;;;;;;;8.15;4.45;;;;;;;23.41;57.50;101501.34;4995033;28;20487;-67
2022/06/29 07:54:10;;;;;;;5.63;3.95;;;;;;;23.45;57.26;101486.69;4987308;28;20026;-69
2022/06/29 07:56:37;;;;;;;11.15;4.00;;;;;;;23.55;57.09;101494.88;4987492;28;20468;-68
2022/06/29 07:59:02;;;;;;;7.57;4.45;;;;;;;23.74;56.94;101491.56;4988452;28;20058;-68
2022/06/29 08:01:28;;;;;;;11.80;4.43;;;;;;;23.82;57.41;101499.91;5001292;28;20030;-67
2022/06/29 08:03:54;;;;;;;8.20;4.15;;;;;;;23.94;57.05;101499.88;4987513;28;20089;-68
2022/06/29 08:06:20;;;;;;;10.88;4.43;;;;;;;24.01;56.17;101492.16;5000985;28;20138;-68
2022/06/29 08:08:45;;;;;;;5.13;2.97;;;;;;;24.15;56.49;101501.81;5026477;28;20480;-68
2022/06/29 08:11:11;;;;;;;7.10;3.50;;;;;;;24.32;56.57;101500.47;5026265;28;20032;-67
2022/06/29 08:13:38;;;;;;;6.20;3.53;;;;;;;24.22;56.33;101501.22;5027415;28;20071;-69
2022/06/29 08:16:04;;;;;;;8.35;3.70;;;;;;;24.32;56.05;101508.53;5012473;28;20026;-68
2022/06/29 08:18:30;;;;;;;5.28;3.35;;;;;;;24.30;55.54;101495.19;5007098;28;20096;-68
2022/06/29 08:20:55;;;;;;;7.07;3.80;;;;;;;24.35;55.38;101503.72;5006257;28;20230;-69
2022/06/29 08:23:20;;;;;;;6.72;4.18;;;;;;;24.44;55.97;101493.19;5004500;28;20084;-67
2022/06/29 08:25:46;;;;;;;5.88;3.30;;;;;;;24.53;56.18;101488.88;5005585;28;20030;-66
2022/06/29 08:28:11;;;;;;;7.47;3.33;;;;;;;24.43;55.76;101495.03;5006514;28;20022;-63
2022/06/29 08:30:36;;;;;;;8.35;2.92;;;;;;;24.43;55.61;101488.78;5006698;28;20045;-63
2022/06/29 08:33:02;;;;;;;6.85;2.83;;;;;;;24.53;55.23;101476.25;5002880;28;20034;-63
2022/06/29 08:35:27;;;;;;;8.18;3.45;;;;;;;24.62;54.14;101480.00;5002398;28;20048;-62
2022/06/29 08:37:53;;;;;;;8.25;2.80;;;;;;;24.71;54.26;101473.84;5006016;28;20038;-63
2022/06/29 08:40:18;;;;;;;6.97;2.95;;;;;;;24.67;53.70;101480.47;5006677;28;20498;-62
2022/06/29 08:42:45;;;;;;;7.38;2.90;;;;;;;24.66;54.50;101481.47;5006696;28;20033;-63
2022/06/29 08:45:12;;;;;;;9.52;2.35;;;;;;;24.74;53.94;101486.19;5006436;28;20495;-63
2022/06/29 08:47:37;;;;;;;4.40;2.42;;;;;;;24.89;54.64;101475.16;5009422;28;20484;-64
2022/06/29 08:50:06;;;;;;;6.22;3.42;;;;;;;25.03;53.28;101482.91;5006799;28;20041;-63
2022/06/29 08:52:34;;;;;;;8.05;2.72;;;;;;;25.06;53.82;101481.78;5004856;28;20160;-63
2022/06/29 08:55:00;;;;;;;8.32;3.20;;;;;;;25.13;52.80;101482.94;5006545;28;20033;-64
2022/06/29 08:57:25;;;;;;;6.30;3.13;;;;;;;25.19;52.49;101474.31;5007674;28;20026;-64
2022/06/29 08:59:55;;;;;;;6.72;2.65;;;;;;;25.23;53.30;101478.47;5006495;28;20057;-62
2022/06/29 09:02:21;;;;;;;6.05;2.35;;;;;;;25.28;52.84;101474.53;5005978;28;20129;-62
2022/06/29 09:04:47;;;;;;;8.20;2.78;;;;;;;25.44;53.27;101474.91;5006619;28;20033;-62
2022/06/29 09:07:12;;;;;;;6.22;2.63;;;;;;;25.51;53.85;101474.34;5005127;28;20038;-63
2022/06/29 09:10:13;;;;;;;4.22;2.50;;;;;;;25.56;52.73;101474.78;5008965;28;20038;-63
2022/06/29 09:12:39;;;;;;;7.95;2.58;;;;;;;25.62;52.66;101474.28;4983756;28;20030;-64
2022/06/29 09:15:07;;;;;;;5.20;2.17;;;;;;;25.59;52.24;101477.22;5006966;28;20026;-62
2022/06/29 09:17:33;;;;;;;3.85;1.98;;;;;;;25.55;52.55;101473.94;5005132;28;20022;-62
2022/06/29 09:19:59;;;;;;;6.03;2.50;;;;;;;25.69;51.75;101478.16;5009004;28;20053;-61
2022/06/29 09:22:25;;;;;;;6.57;2.17;;;;;;;25.81;52.50;101475.34;5024707;28;20029;-63
2022/06/29 09:24:51;;;;;;;6.30;2.33;;;;;;;25.73;51.55;101474.19;5024764;28;20025;-62
2022/06/29 09:27:16;;;;;;;5.00;1.95;;;;;;;25.95;51.66;101474.94;5024105;28;20435;-63
2022/06/29 09:29:42;;;;;;;7.07;2.28;;;;;;;26.02;50.56;101474.38;5026431;28;20026;-64
2022/06/29 09:32:14;;;;;;;3.33;2.58;;;;;;;26.22;50.32;101470.72;5024922;28;20606;-65
2022/06/29 09:34:41;;;;;;;11.18;2.80;;;;;;;26.22;51.96;101467.19;5025999;28;20075;-73
2022/06/29 09:37:16;;;;;;;7.90;2.40;;;;;;;26.29;49.78;101475.56;5025480;28;20036;-69
2022/06/29 09:39:50;;;;;;;7.65;2.53;;;;;;;26.33;49.70;101474.31;5024833;28;20029;-68
2022/06/29 09:42:17;;;;;;;5.97;1.83;;;;;;;26.42;48.98;101470.78;5025357;28;20052;-64
2022/06/29 09:44:43;;;;;;;6.45;2.10;;;;;;;26.43;48.75;101467.06;5026126;28;20132;-63
2022/06/29 09:47:19;;;;;;;2.75;2.10;;;;;;;26.52;48.95;101469.94;5026009;28;20536;-65
2022/06/29 09:49:52;;;;;;;8.40;2.58;;;;;;;26.53;48.77;101463.53;5024655;28;20036;-63
2022/06/29 09:52:19;;;;;;;7.05;2.60;;;;;;;26.49;49.60;101469.22;5024771;28;20057;-64
2022/06/29 09:54:57;;;;;;;6.50;1.98;;;;;;;26.71;48.54;101466.34;5026099;28;20029;-66
2022/06/29 09:57:25;;;;;;;;;;;;;;;26.92;47.92;101468.03;5010144;28;20029;-65
2022/06/29 10:02:38;;;;;;;2.10;1.70;;;;;;;27.04;46.38;101455.22;5005186;28;20049;-66
2022/06/29 10:05:13;;;;;;;7.90;2.25;;;;;;;27.07;48.21;101461.22;5013649;28;20549;-66
2022/06/29 10:07:43;;;;;;;2.67;1.88;;;;;;;27.10;48.53;101460.06;5028854;28;20496;-65
2022/06/29 10:10:19;;;;;;;3.28;2.22;;;;;;;27.10;45.83;101458.22;5028642;28;20103;-64
2022/06/29 10:16:05;;;;;;;2.15;1.65;;;;;;;27.53;44.28;101451.50;5007866;28;20076;-68
2022/06/29 10:18:52;;;;;;;3.63;1.52;;;;;;;27.67;45.49;101448.34;5006496;28;20112;-71
2022/06/29 10:21:24;;;;;;;6.82;1.70;;;;;;;27.84;46.21;101457.47;5008364;28;20045;-64
2022/06/29 10:23:50;;;;;;;3.40;1.58;;;;;;;28.15;43.36;101450.03;5006973;28;20033;-70
2022/06/29 10:26:30;;;;;;;6.20;1.88;;;;;;;28.13;42.21;101444.75;5009338;28;20052;-70
2022/06/29 10:28:56;;;;;;;7.18;2.05;;;;;;;28.19;43.74;101454.97;5005670;28;20148;-69
2022/06/29 10:31:56;;;;;;;5.00;1.80;;;;;;;28.03;43.14;101441.25;5008398;28;20511;-68
2022/06/29 10:34:31;;;;;;;2.33;1.35;;;;;;;27.99;41.36;101447.00;5007730;28;20161;-68
2022/06/29 10:37:02;;;;;;;5.63;1.50;;;;;;;28.33;40.91;101439.22;5007494;28;20120;-68
2022/06/29 10:39:48;;;;;;;8.23;1.88;;;;;;;28.52;42.27;101432.78;5007061;28;20083;-68
2022/06/29 10:45:14;;;;;;;5.53;1.50;;;;;;;28.73;40.13;101437.00;5007113;28;20080;-69
2022/06/29 10:47:40;;;;;;;3.47;1.38;;;;;;;28.90;38.65;101424.41;5007285;28;20356;-69
2022/06/29 10:50:19;;;;;;;3.67;1.92;;;;;;;28.76;39.14;101429.41;5005990;28;20105;-70
2022/06/29 10:52:45;;;;;;;2.88;1.30;;;;;;;28.79;39.37;101430.94;5005515;28;20077;-71
2022/06/29 10:55:11;;;;;;;2.20;1.40;;;;;;;29.32;37.24;101427.38;5007892;28;20106;-70
2022/06/29 10:57:38;;;;;;;9.10;1.50;;;;;;;29.60;37.74;101429.88;5005988;28;20056;-68
2022/06/29 11:00:08;;;;;;;3.50;1.58;;;;;;;29.60;37.30;101419.03;5006866;28;20014;-70
2022/06/29 11:02:34;;;;;;;2.83;1.35;;;;;;;29.73;36.91;101423.97;5007775;28;20100;-70
2022/06/29 11:04:59;;;;;;;3.55;1.50;;;;;;;30.07;35.88;101414.88;5007469;28;20117;-70
2022/06/29 11:12:54;;;;;;;2.33;1.33;;;;;;;30.64;35.36;101404.22;5003698;28;20048;-70
2022/06/29 11:15:42;;;;;;;5.10;1.80;;;;;;;31.17;35.98;101409.22;5006071;28;20022;-73
2022/06/29 11:18:08;;;;;;;4.30;1.30;;;;;;;31.35;33.59;101414.44;4999790;28;20026;-70
2022/06/29 11:20:33;;;;;;;5.13;1.55;;;;;;;31.48;32.98;101402.97;5018628;28;20045;-70
2022/06/29 11:22:59;;;;;;;4.03;1.30;;;;;;;31.37;33.53;101397.94;5027446;28;20480;-70
2022/06/29 11:25:34;;;;;;;2.38;1.42;;;;;;;31.69;33.37;101401.50;5025818;28;20064;-71
2022/06/29 11:28:00;;;;;;;2.05;1.23;;;;;;;31.38;32.32;101405.06;5026953;28;20036;-77
2022/06/29 11:30:25;;;;;;;3.83;1.35;;;;;;;30.96;32.48;101423.38;5027799;28;20048;-67
2022/06/29 11:32:50;;;;;;;7.00;1.40;;;;;;;30.64;32.32;101413.22;5027066;28;20029;-72
2022/06/29 11:35:18;;;;;;;5.05;1.15;;;;;;;30.02;32.70;101426.28;5025419;28;20492;-71
2022/06/29 11:37:48;;;;;;;3.78;1.50;;;;;;;29.88;32.63;101416.03;5007412;28;21115;-71
2022/06/29 11:40:14;;;;;;;4.55;1.38;;;;;;;29.84;34.87;101414.69;5007199;28;20041;-66
2022/06/29 11:45:34;;;;;;;7.75;1.50;;;;;;;30.12;32.75;101420.66;5006711;28;20088;-68
2022/06/29 11:47:59;;;;;;;6.20;1.23;;;;;;;30.73;32.78;101414.03;5006716;28;20083;-74